Time;durP1;ratioP1;P1;durP2;ratioP2;P2;SDS_P1;SDS_P2;PMS_P1;PMS_P2;Temp;Humidity;BMP_temperature;BMP_pressure;BME280_temperature;BME280_humidity;BME280_pressure;Samples;Min_cycle;Max_cycle;Signal;HPM_P1;HPM_P2
2023/03/14 00:00:13;;;;;;;11.23;3.30;;;9.10;99.90;;;;;;5049789;28;20037;-78
2023/03/14 00:02:40;;;;;;;14.68;4.47;;;9.10;99.90;;;;;;5048464;28;20130;-78
2023/03/14 00:05:06;;;;;;;4.90;2.85;;;9.10;99.90;;;;;;5014375;28;20053;-77
2023/03/14 00:07:39;;;;;;;18.85;6.50;;;9.10;99.90;;;;;;5040297;28;20433;-77
2023/03/14 00:10:12;;;;;;;7.95;3.55;;;9.10;99.90;;;;;;5045023;28;20057;-77
2023/03/14 00:12:38;;;;;;;9.43;3.42;;;9.10;99.90;;;;;;5046625;28;20273;-76
2023/03/14 00:15:04;;;;;;;10.32;3.88;;;9.10;99.90;;;;;;5033510;28;20038;-78
2023/03/14 00:17:31;;;;;;;7.05;3.50;;;9.10;99.90;;;;;;5024411;28;20053;-76
2023/03/14 00:19:57;;;;;;;14.20;4.45;;;9.20;99.90;;;;;;5038944;28;20685;-78
2023/03/14 00:22:22;;;;;;;4.97;2.55;;;9.10;99.90;;;;;;5022168;28;20077;-79
2023/03/14 00:24:48;;;;;;;18.60;3.90;;;9.10;99.90;;;;;;5055159;28;20040;-78
2023/03/14 00:27:14;;;;;;;10.40;3.40;;;9.10;99.90;;;;;;5021602;28;20510;-76
2023/03/14 00:29:39;;;;;;;8.18;3.38;;;9.10;99.90;;;;;;5026342;28;20041;-77
2023/03/14 00:32:05;;;;;;;7.88;3.40;;;9.10;99.90;;;;;;5027530;28;20137;-78
2023/03/14 00:34:31;;;;;;;4.03;2.80;;;9.00;99.90;;;;;;5021936;28;20045;-77
2023/03/14 00:36:57;;;;;;;9.10;3.38;;;9.00;99.90;;;;;;5045423;28;20515;-77
2023/03/14 00:39:23;;;;;;;10.32;3.35;;;9.00;99.90;;;;;;5030508;28;20119;-77
2023/03/14 00:41:48;;;;;;;12.27;3.90;;;9.00;99.90;;;;;;5029259;28;20513;-78
2023/03/14 00:44:14;;;;;;;10.15;4.95;;;8.90;99.90;;;;;;5045567;28;20033;-78
2023/03/14 00:46:39;;;;;;;23.52;4.72;;;8.90;99.90;;;;;;5028951;28;20041;-76
2023/03/14 00:49:05;;;;;;;8.77;3.60;;;8.80;99.90;;;;;;5033664;28;20042;-77
2023/03/14 00:51:30;;;;;;;21.10;4.78;;;8.80;99.90;;;;;;5028376;28;20096;-77
2023/03/14 00:53:56;;;;;;;18.48;4.18;;;8.80;99.90;;;;;;5030075;28;20033;-77
2023/03/14 00:56:22;;;;;;;10.02;4.30;;;8.80;99.90;;;;;;5042633;28;20049;-78
2023/03/14 00:58:47;;;;;;;10.13;3.72;;;8.80;99.90;;;;;;5027356;28;20477;-78
2023/03/14 01:01:17;;;;;;;7.57;3.78;;;8.80;99.90;;;;;;5027594;28;20041;-76
2023/03/14 01:03:43;;;;;;;7.05;3.78;;;8.80;99.90;;;;;;5045768;28;20120;-78
2023/03/14 01:06:17;;;;;;;17.77;4.22;;;8.80;99.90;;;;;;5044179;28;20132;-76
2023/03/14 01:08:43;;;;;;;8.80;3.83;;;8.80;99.90;;;;;;5012408;28;20060;-78
2023/03/14 01:11:15;;;;;;;4.90;3.20;;;8.80;99.90;;;;;;5048306;28;20036;-79
2023/03/14 01:13:41;;;;;;;27.23;4.93;;;8.80;99.90;;;;;;5028934;28;20063;-78
2023/03/14 01:16:09;;;;;;;8.82;3.38;;;8.80;99.90;;;;;;5029155;28;20044;-78
2023/03/14 01:18:35;;;;;;;5.53;2.65;;;8.90;99.90;;;;;;5019442;28;20128;-77
2023/03/14 01:21:02;;;;;;;13.95;4.57;;;9.00;99.90;;;;;;5035098;28;20043;-78
2023/03/14 01:23:27;;;;;;;10.25;3.17;;;8.90;99.90;;;;;;5038640;28;20038;-76
2023/03/14 01:25:53;;;;;;;10.98;3.90;;;8.90;99.90;;;;;;5032177;28;20375;-78
2023/03/14 01:28:19;;;;;;;5.30;3.00;;;9.00;99.90;;;;;;5038644;28;20052;-77
2023/03/14 01:30:44;;;;;;;10.52;2.78;;;9.00;99.90;;;;;;5048012;28;20048;-78
2023/03/14 01:33:11;;;;;;;6.07;3.35;;;9.00;99.90;;;;;;5033025;28;20072;-78
2023/03/14 01:35:36;;;;;;;11.25;3.88;;;9.00;99.90;;;;;;5042809;28;20045;-78
2023/03/14 01:38:02;;;;;;;10.75;3.75;;;9.00;99.90;;;;;;5027835;28;20048;-77
2023/03/14 01:40:27;;;;;;;12.18;3.40;;;9.00;99.90;;;;;;5045044;28;20033;-77
2023/03/14 01:43:05;;;;;;;9.48;3.70;;;9.00;99.90;;;;;;5010655;28;20151;-77
2023/03/14 01:46:08;;;;;;;15.68;5.32;;;9.00;99.90;;;;;;5039086;28;20053;-78
2023/03/14 01:48:57;;;;;;;7.72;3.08;;;9.00;99.90;;;;;;5024064;28;20049;-78
2023/03/14 01:51:51;;;;;;;9.10;3.97;;;9.00;99.90;;;;;;5005727;28;20049;-76
2023/03/14 01:54:36;;;;;;;11.85;4.15;;;9.00;99.90;;;;;;5024804;28;20052;-78
2023/03/14 01:57:22;;;;;;;11.65;4.15;;;9.00;99.90;;;;;;5032396;28;20493;-78
2023/03/14 02:00:00;;;;;;;11.77;3.83;;;9.00;99.90;;;;;;4999049;28;20164;-78
2023/03/14 02:02:26;;;;;;;11.20;4.25;;;8.90;99.90;;;;;;5028531;28;20450;-74
2023/03/14 02:04:54;;;;;;;12.57;3.22;;;9.00;99.90;;;;;;5046519;28;20508;-77
2023/03/14 02:07:26;;;;;;;14.75;4.28;;;8.90;99.90;;;;;;5028556;28;20370;-76
2023/03/14 02:09:53;;;;;;;4.40;3.00;;;8.90;99.90;;;;;;5043389;28;20045;-75
2023/03/14 02:14:59;;;;;;;8.80;4.07;;;8.90;99.90;;;;;;5022685;28;20049;-75
2023/03/14 02:17:25;;;;;;;8.00;3.58;;;8.90;99.90;;;;;;5007689;28;20048;-77
2023/03/14 02:20:13;;;;;;;5.57;3.70;;;8.90;99.90;;;;;;5007603;28;20045;-77
2023/03/14 02:22:41;;;;;;;12.70;3.88;;;8.90;99.90;;;;;;5006197;28;20120;-77
2023/03/14 02:25:43;;;;;;;21.70;4.80;;;8.90;99.90;;;;;;5024528;28;20095;-77
2023/03/14 02:28:09;;;;;;;6.50;3.05;;;8.90;99.90;;;;;;4908488;29;20055;-77
2023/03/14 02:30:35;;;;;;;11.02;3.63;;;8.90;99.90;;;;;;5004202;28;20087;-78
2023/03/14 02:33:05;;;;;;;10.75;3.53;;;8.80;99.90;;;;;;5024831;28;20468;-76
2023/03/14 02:35:57;;;;;;;6.20;3.65;;;8.80;99.90;;;;;;5007205;28;20108;-78
2023/03/14 02:38:33;;;;;;;18.35;4.80;;;8.80;99.90;;;;;;5000474;28;20163;-77
2023/03/14 02:40:58;;;;;;;17.80;3.63;;;8.90;99.90;;;;;;5024858;28;20034;-77
2023/03/14 02:43:24;;;;;;;11.25;3.80;;;8.80;99.90;;;;;;5024493;28;20037;-77
2023/03/14 02:45:51;;;;;;;9.95;4.40;;;8.80;99.90;;;;;;5007359;28;20057;-77
2023/03/14 02:48:23;;;;;;;6.32;3.10;;;8.80;99.90;;;;;;5006430;28;20045;-77
2023/03/14 02:50:52;;;;;;;7.50;3.03;;;8.80;99.90;;;;;;5006442;28;20042;-76
2023/03/14 02:53:21;;;;;;;13.85;4.20;;;8.80;99.90;;;;;;5024675;28;20091;-77
2023/03/14 02:55:48;;;;;;;15.68;5.32;;;8.80;99.90;;;;;;5024629;28;20053;-77
2023/03/14 02:58:14;;;;;;;19.73;3.92;;;8.80;99.90;;;;;;4990490;28;20060;-75
2023/03/14 03:00:39;;;;;;;12.18;5.05;;;8.80;99.90;;;;;;5024669;28;20049;-77
2023/03/14 03:03:08;;;;;;;13.63;4.18;;;8.80;99.90;;;;;;5006245;28;20050;-77
2023/03/14 03:05:33;;;;;;;14.20;6.18;;;8.80;99.90;;;;;;4989060;28;20050;-77
2023/03/14 03:08:00;;;;;;;14.93;5.40;;;8.80;99.90;;;;;;5024114;28;20505;-76
2023/03/14 03:10:26;;;;;;;23.27;6.63;;;8.80;99.90;;;;;;5006205;28;20041;-76
2023/03/14 03:12:51;;;;;;;17.65;4.65;;;8.70;99.90;;;;;;5023917;28;20136;-77
2023/03/14 03:15:17;;;;;;;18.75;4.53;;;8.70;99.90;;;;;;5010407;28;20136;-74
2023/03/14 03:17:43;;;;;;;12.60;4.50;;;8.70;99.90;;;;;;4996677;28;20041;-75
2023/03/14 03:20:09;;;;;;;20.98;4.50;;;8.70;99.90;;;;;;5023463;28;20335;-77
2023/03/14 03:22:38;;;;;;;17.83;4.78;;;8.70;99.90;;;;;;5022811;28;20056;-77
2023/03/14 03:25:06;;;;;;;20.67;6.13;;;8.70;99.90;;;;;;5023269;28;20124;-77
2023/03/14 03:27:33;;;;;;;12.27;5.47;;;8.70;99.90;;;;;;5023431;28;20392;-77
2023/03/14 03:29:59;;;;;;;15.48;5.20;;;8.60;99.90;;;;;;5023730;28;20505;-75
2023/03/14 03:32:25;;;;;;;11.82;4.65;;;8.70;99.90;;;;;;5023788;28;20084;-78
2023/03/14 03:34:51;;;;;;;17.30;5.78;;;8.70;99.90;;;;;;5023558;28;20037;-77
2023/03/14 03:37:16;;;;;;;25.80;6.40;;;8.70;99.90;;;;;;5004303;28;20129;-77
2023/03/14 03:39:42;;;;;;;14.38;4.03;;;8.70;99.90;;;;;;5005861;28;20072;-77
2023/03/14 03:42:07;;;;;;;18.80;4.53;;;8.60;99.90;;;;;;4990714;28;20488;-74
2023/03/14 03:44:33;;;;;;;17.00;5.68;;;8.70;99.90;;;;;;5009741;28;20046;-77
2023/03/14 03:46:59;;;;;;;17.45;4.97;;;8.70;99.90;;;;;;5027489;28;20120;-76
2023/03/14 03:49:28;;;;;;;20.13;4.78;;;8.70;99.90;;;;;;5009687;28;20099;-74
2023/03/14 03:51:53;;;;;;;22.63;4.72;;;8.70;99.90;;;;;;5025742;28;20517;-77
2023/03/14 03:54:19;;;;;;;16.83;5.05;;;8.70;99.90;;;;;;4992937;28;20045;-76
2023/03/14 03:56:44;;;;;;;16.40;6.68;;;8.70;99.90;;;;;;5009197;28;20080;-76
2023/03/14 03:59:10;;;;;;;18.55;6.00;;;8.70;99.90;;;;;;5026600;28;20520;-76
2023/03/14 04:01:36;;;;;;;15.13;5.20;;;8.70;99.90;;;;;;5009216;28;20100;-77
2023/03/14 04:04:01;;;;;;;13.65;5.25;;;8.70;99.90;;;;;;5008847;28;20092;-77
2023/03/14 04:06:27;;;;;;;18.10;6.30;;;8.60;99.90;;;;;;5009080;28;20053;-76
2023/03/14 04:08:53;;;;;;;23.65;4.93;;;8.60;99.90;;;;;;5026415;28;20239;-76
2023/03/14 04:11:19;;;;;;;12.75;4.60;;;8.60;99.90;;;;;;5027031;28;20985;-77
2023/03/14 04:13:44;;;;;;;22.00;6.22;;;8.60;99.90;;;;;;5008736;28;20132;-77
2023/03/14 04:16:19;;;;;;;18.70;5.28;;;8.70;99.90;;;;;;5026319;28;20439;-77
2023/03/14 04:18:45;;;;;;;31.25;6.88;;;8.60;99.90;;;;;;5018090;28;20136;-77
2023/03/14 04:21:11;;;;;;;16.40;5.10;;;8.60;99.90;;;;;;5007563;28;20120;-77
2023/03/14 04:23:36;;;;;;;14.10;5.38;;;8.60;99.90;;;;;;5026714;28;20037;-76
2023/03/14 04:26:02;;;;;;;20.63;6.72;;;8.60;99.90;;;;;;5008554;28;20076;-77
2023/03/14 04:28:28;;;;;;;25.17;4.70;;;8.60;99.90;;;;;;5026846;28;20045;-75
2023/03/14 04:30:54;;;;;;;12.05;4.82;;;8.60;99.90;;;;;;4992251;28;20049;-77
2023/03/14 04:33:19;;;;;;;12.30;4.65;;;8.60;99.90;;;;;;5026066;28;20603;-76
2023/03/14 04:35:46;;;;;;;11.98;5.00;;;8.60;99.90;;;;;;5024782;28;20072;-75
2023/03/14 04:38:12;;;;;;;20.90;5.65;;;8.60;99.90;;;;;;5008001;28;20238;-77
2023/03/14 04:40:39;;;;;;;7.20;3.97;;;8.60;99.90;;;;;;5026944;28;20049;-78
2023/03/14 04:43:05;;;;;;;7.63;5.05;;;8.60;99.90;;;;;;5008037;28;20077;-76
2023/03/14 04:45:31;;;;;;;13.50;4.25;;;8.50;99.90;;;;;;5025666;28;20338;-77
2023/03/14 04:47:56;;;;;;;16.10;5.03;;;8.50;99.90;;;;;;5026618;28;20573;-77
2023/03/14 04:50:22;;;;;;;18.15;3.88;;;8.50;99.90;;;;;;5007496;28;20346;-77
2023/03/14 04:52:48;;;;;;;11.13;4.50;;;8.50;99.90;;;;;;5007782;28;20041;-77
2023/03/14 04:55:13;;;;;;;9.63;2.97;;;8.50;99.90;;;;;;5025980;28;20444;-77
2023/03/14 04:57:39;;;;;;;8.07;3.15;;;8.50;99.90;;;;;;5025958;28;20074;-76
2023/03/14 05:00:06;;;;;;;8.27;3.03;;;8.50;99.90;;;;;;5026029;28;20263;-77
2023/03/14 05:02:32;;;;;;;12.93;3.05;;;8.50;99.90;;;;;;5008619;28;20375;-77
2023/03/14 05:04:57;;;;;;;14.13;4.20;;;8.50;99.90;;;;;;5008673;28;20045;-77
2023/03/14 05:07:23;;;;;;;16.58;3.88;;;8.50;99.90;;;;;;5006382;28;20850;-75
2023/03/14 05:09:49;;;;;;;6.45;3.15;;;8.50;99.90;;;;;;5008096;28;20345;-78
2023/03/14 05:12:14;;;;;;;7.00;2.97;;;8.50;99.90;;;;;;5025505;28;20070;-77
2023/03/14 05:14:40;;;;;;;6.28;3.28;;;8.50;99.90;;;;;;5017460;28;20129;-74
2023/03/14 05:17:05;;;;;;;5.72;3.53;;;8.50;99.90;;;;;;5007423;28;20501;-77
2023/03/14 05:19:31;;;;;;;6.57;3.10;;;8.50;99.90;;;;;;5007533;28;20079;-76
2023/03/14 05:21:57;;;;;;;7.97;2.05;;;8.50;99.90;;;;;;5007304;28;20333;-78
2023/03/14 05:24:22;;;;;;;6.43;3.03;;;8.50;99.90;;;;;;5025480;28;20511;-78
2023/03/14 05:26:48;;;;;;;5.05;2.75;;;8.50;99.90;;;;;;5025277;28;20041;-77
2023/03/14 05:29:13;;;;;;;9.80;3.03;;;8.50;99.90;;;;;;5006906;28;20045;-78
2023/03/14 05:31:39;;;;;;;8.20;2.55;;;8.50;99.90;;;;;;5024027;28;20046;-79
2023/03/14 05:34:05;;;;;;;11.75;3.45;;;8.40;99.90;;;;;;5007420;28;20481;-78
2023/03/14 05:36:30;;;;;;;4.88;2.67;;;8.40;99.90;;;;;;5005915;28;20072;-75
2023/03/14 05:38:56;;;;;;;6.30;2.42;;;8.40;99.90;;;;;;5025780;28;20136;-78
2023/03/14 05:41:22;;;;;;;15.43;4.15;;;8.40;99.90;;;;;;5024969;28;20037;-77
2023/03/14 05:43:47;;;;;;;6.72;3.22;;;8.30;99.90;;;;;;5006975;28;20038;-77
2023/03/14 05:46:13;;;;;;;5.45;2.08;;;8.30;99.90;;;;;;5024379;28;20053;-79
2023/03/14 05:48:39;;;;;;;5.95;2.10;;;8.30;99.90;;;;;;5007418;28;20046;-79
2023/03/14 05:51:05;;;;;;;2.95;2.45;;;8.20;99.90;;;;;;5005470;28;20045;-77
2023/03/14 05:53:31;;;;;;;3.90;1.67;;;8.10;99.90;;;;;;5024935;28;20043;-79
2023/03/14 05:55:56;;;;;;;4.95;1.35;;;8.00;99.90;;;;;;5007367;28;20037;-80
2023/03/14 05:58:22;;;;;;;4.10;1.25;;;7.90;99.90;;;;;;5024614;28;20044;-79
2023/03/14 06:00:49;;;;;;;10.02;2.17;;;7.70;99.90;;;;;;5007353;28;20446;-80
2023/03/14 06:03:15;;;;;;;10.85;2.17;;;7.50;99.90;;;;;;5024128;28;20037;-79
2023/03/14 06:05:40;;;;;;;2.40;1.05;;;7.30;99.90;;;;;;5022305;28;20057;-79
2023/03/14 06:08:06;;;;;;;10.77;1.88;;;7.20;99.90;;;;;;5024210;28;20132;-78
2023/03/14 06:10:31;;;;;;;10.52;2.55;;;7.00;99.90;;;;;;5024531;28;20125;-79
2023/03/14 06:12:57;;;;;;;3.53;1.50;;;6.80;99.90;;;;;;5024560;28;20111;-78
2023/03/14 06:15:23;;;;;;;19.88;2.83;;;6.70;99.90;;;;;;5017959;28;20045;-76
2023/03/14 06:17:48;;;;;;;6.20;1.35;;;6.60;99.90;;;;;;5029172;28;20587;-79
2023/03/14 06:20:14;;;;;;;8.70;1.60;;;6.40;99.90;;;;;;5022780;28;20044;-80
2023/03/14 06:22:40;;;;;;;13.13;2.13;;;6.30;99.90;;;;;;5023587;28;20504;-79
2023/03/14 06:25:06;;;;;;;3.53;1.58;;;6.10;99.90;;;;;;5006728;28;20134;-78
2023/03/14 06:27:32;;;;;;;6.45;1.75;;;5.90;99.90;;;;;;5021187;28;20562;-77
2023/03/14 06:29:58;;;;;;;6.07;2.22;;;5.80;99.90;;;;;;5023589;28;20425;-79
2023/03/14 06:32:24;;;;;;;5.20;1.20;;;5.80;99.90;;;;;;5006361;28;20037;-80
2023/03/14 06:34:50;;;;;;;2.10;1.60;;;5.60;99.90;;;;;;5006291;28;20038;-78
2023/03/14 06:37:15;;;;;;;6.32;2.55;;;5.60;99.90;;;;;;5025722;28;20041;-79
2023/03/14 06:39:41;;;;;;;2.05;1.00;;;5.50;99.90;;;;;;5006366;28;20122;-79
2023/03/14 06:42:06;;;;;;;4.18;2.15;;;5.40;99.90;;;;;;5013938;28;20075;-79
2023/03/14 06:44:32;;;;;;;1.45;0.70;;;5.40;99.90;;;;;;5015153;28;20113;-79
2023/03/14 06:46:58;;;;;;;8.00;1.17;;;5.30;99.90;;;;;;5011969;28;20124;-80
2023/03/14 06:49:23;;;;;;;7.95;1.77;;;5.20;99.90;;;;;;5029624;28;20043;-78
2023/03/14 06:51:49;;;;;;;2.72;1.42;;;5.10;99.90;;;;;;5025980;28;20045;-78
2023/03/14 06:54:15;;;;;;;1.85;0.98;;;5.10;99.90;;;;;;5024082;28;20088;-81
2023/03/14 06:56:40;;;;;;;5.20;1.80;;;5.10;99.90;;;;;;5023759;28;20041;-80
2023/03/14 06:59:06;;;;;;;5.35;1.92;;;5.10;99.90;;;;;;5024078;28;20081;-80
2023/03/14 07:01:34;;;;;;;1.25;0.93;;;5.10;99.90;;;;;;5006180;28;20456;-78
2023/03/14 07:04:01;;;;;;;16.40;1.90;;;5.10;99.90;;;;;;5006044;28;20045;-81
2023/03/14 07:06:29;;;;;;;2.13;0.98;;;5.00;99.90;;;;;;5024488;28;20079;-82
2023/03/14 07:08:55;;;;;;;3.20;0.95;;;5.00;99.90;;;;;;5007192;28;20052;-80
2023/03/14 07:11:21;;;;;;;2.45;1.00;;;4.90;99.90;;;;;;5024138;28;20448;-79
2023/03/14 07:13:46;;;;;;;4.85;1.40;;;4.90;99.90;;;;;;4989042;28;20045;-77
2023/03/14 07:16:12;;;;;;;4.32;1.55;;;4.90;99.90;;;;;;5025355;28;20041;-77
2023/03/14 07:18:38;;;;;;;3.20;1.58;;;4.90;99.90;;;;;;5027961;28;20056;-77
2023/03/14 07:21:08;;;;;;;4.63;1.95;;;4.90;99.90;;;;;;5026996;28;20459;-77
2023/03/14 07:23:34;;;;;;;6.57;2.60;;;4.90;99.90;;;;;;5009570;28;20041;-77
2023/03/14 07:26:00;;;;;;;12.30;1.65;;;4.90;99.90;;;;;;5029146;28;20037;-77
2023/03/14 07:28:27;;;;;;;12.00;1.73;;;5.00;99.90;;;;;;5031663;28;20037;-77
2023/03/14 07:30:53;;;;;;;2.75;1.80;;;4.90;99.90;;;;;;5026515;28;20045;-78
2023/03/14 07:33:19;;;;;;;6.05;2.15;;;5.00;99.90;;;;;;5027369;28;20053;-76
2023/03/14 07:35:47;;;;;;;2.20;1.23;;;5.00;99.90;;;;;;5009070;28;20111;-77
2023/03/14 07:38:12;;;;;;;6.60;1.15;;;4.90;99.90;;;;;;5008953;28;20087;-76
2023/03/14 07:40:38;;;;;;;4.15;2.00;;;5.00;99.90;;;;;;5009494;28;20310;-77
2023/03/14 07:43:03;;;;;;;4.00;1.88;;;4.90;99.90;;;;;;5009306;28;20037;-77
2023/03/14 07:45:29;;;;;;;7.90;3.20;;;4.90;99.90;;;;;;5009596;28;20449;-77
2023/03/14 07:47:57;;;;;;;9.98;2.60;;;5.00;99.90;;;;;;5027535;28;20046;-77
2023/03/14 07:50:23;;;;;;;9.57;2.22;;;5.00;99.90;;;;;;5025995;28;20081;-77
2023/03/14 07:52:49;;;;;;;2.58;1.50;;;5.00;99.90;;;;;;5026825;28;20634;-77
2023/03/14 07:55:15;;;;;;;6.60;2.08;;;5.00;99.90;;;;;;5026813;28;20077;-78
2023/03/14 07:57:41;;;;;;;6.03;3.22;;;5.00;99.90;;;;;;5026738;28;20123;-76
2023/03/14 08:00:08;;;;;;;15.48;2.55;;;5.10;99.90;;;;;;5008835;28;20037;-76
2023/03/14 08:02:33;;;;;;;5.95;2.45;;;5.10;99.90;;;;;;4993042;28;20045;-77
2023/03/14 08:04:59;;;;;;;7.80;1.65;;;5.10;99.90;;;;;;5026322;28;20041;-78
2023/03/14 08:07:24;;;;;;;8.45;2.17;;;5.10;99.90;;;;;;5009874;28;20053;-76
2023/03/14 08:09:50;;;;;;;5.65;2.67;;;5.20;99.90;;;;;;5009254;28;20037;-75
2023/03/14 08:12:16;;;;;;;6.70;2.70;;;5.20;99.90;;;;;;5008467;28;20112;-76
2023/03/14 08:14:41;;;;;;;14.85;3.15;;;5.20;99.90;;;;;;5008901;28;20061;-76
2023/03/14 08:17:08;;;;;;;8.93;2.30;;;5.20;99.90;;;;;;5026343;28;20119;-76
2023/03/14 08:19:33;;;;;;;12.98;2.55;;;5.20;99.90;;;;;;5008907;28;20714;-76
2023/03/14 08:21:59;;;;;;;5.82;2.55;;;5.20;99.90;;;;;;5008617;28;20083;-76
2023/03/14 08:24:25;;;;;;;8.27;2.13;;;5.30;99.90;;;;;;5009183;28;20045;-76
2023/03/14 08:26:50;;;;;;;9.43;3.03;;;5.30;99.90;;;;;;5008477;28;20497;-77
2023/03/14 08:29:16;;;;;;;5.25;2.85;;;5.30;99.90;;;;;;5008141;28;20033;-77
2023/03/14 08:31:41;;;;;;;3.53;2.63;;;5.40;99.90;;;;;;5026355;28;20132;-76
2023/03/14 08:34:07;;;;;;;6.13;2.40;;;5.40;99.90;;;;;;5025889;28;20111;-76
2023/03/14 08:36:33;;;;;;;21.17;4.65;;;5.40;99.90;;;;;;5025773;28;20080;-76
2023/03/14 08:38:59;;;;;;;4.00;2.78;;;5.50;99.90;;;;;;5027116;28;20539;-76
2023/03/14 08:41:24;;;;;;;5.05;2.47;;;5.60;99.90;;;;;;5026891;28;20088;-76
2023/03/14 08:43:50;;;;;;;6.07;3.60;;;5.60;99.90;;;;;;5026308;28;20042;-76
2023/03/14 08:46:16;;;;;;;34.85;5.13;;;5.60;99.90;;;;;;5025798;28;20296;-77
2023/03/14 08:48:41;;;;;;;9.75;3.05;;;5.60;99.90;;;;;;5025897;28;20046;-76
2023/03/14 08:51:13;;;;;;;6.63;2.42;;;5.70;99.90;;;;;;5006795;28;20045;-76
2023/03/14 08:53:39;;;;;;;15.55;4.07;;;5.70;99.90;;;;;;5008447;28;20128;-76
2023/03/14 08:56:06;;;;;;;22.45;5.00;;;5.70;99.90;;;;;;5008233;28;20117;-76
2023/03/14 08:58:32;;;;;;;8.15;3.33;;;5.60;99.90;;;;;;5007832;28;20052;-76
2023/03/14 09:00:58;;;;;;;5.97;3.45;;;5.60;99.90;;;;;;4992544;28;20068;-75
2023/03/14 09:03:24;;;;;;;7.05;3.15;;;5.60;99.90;;;;;;5007794;28;20041;-76
2023/03/14 09:05:51;;;;;;;4.32;3.20;;;5.50;99.90;;;;;;5025564;28;20049;-76
2023/03/14 09:08:17;;;;;;;3.92;2.80;;;5.60;99.90;;;;;;5007804;28;20041;-76
2023/03/14 09:10:43;;;;;;;9.70;2.85;;;5.60;99.90;;;;;;5008497;28;20516;-76
2023/03/14 09:13:09;;;;;;;6.05;3.85;;;5.50;99.90;;;;;;5008187;28;20128;-76
2023/03/14 09:15:34;;;;;;;14.98;2.83;;;5.60;99.90;;;;;;5008280;28;20057;-76
2023/03/14 09:18:00;;;;;;;4.95;2.83;;;5.60;99.90;;;;;;4991777;28;20163;-76
2023/03/14 09:20:26;;;;;;;7.25;3.38;;;5.60;99.90;;;;;;5025275;28;20041;-76
2023/03/14 09:22:51;;;;;;;10.48;3.17;;;5.70;99.90;;;;;;5025919;28;20044;-76
2023/03/14 09:25:17;;;;;;;17.42;3.47;;;5.70;99.90;;;;;;5025696;28;20456;-75
2023/03/14 09:27:42;;;;;;;5.32;2.92;;;5.70;99.90;;;;;;5007832;28;20124;-75
2023/03/14 09:30:09;;;;;;;15.70;3.83;;;5.80;99.90;;;;;;5007591;28;20041;-76
2023/03/14 09:32:35;;;;;;;6.75;3.45;;;5.80;99.90;;;;;;5025448;28;20033;-76
2023/03/14 09:35:00;;;;;;;12.15;3.53;;;5.80;99.90;;;;;;5024207;28;20302;-76
2023/03/14 09:37:26;;;;;;;5.45;3.83;;;5.80;99.90;;;;;;5007850;28;20049;-76
2023/03/14 09:39:51;;;;;;;22.83;3.97;;;5.90;99.90;;;;;;5021799;28;20099;-75
2023/03/14 09:42:21;;;;;;;7.32;3.28;;;5.90;99.90;;;;;;5005525;28;20042;-74
2023/03/14 09:45:01;;;;;;;6.53;3.28;;;6.00;99.90;;;;;;5006526;28;20041;-74
2023/03/14 09:47:27;;;;;;;12.00;3.60;;;6.00;99.90;;;;;;5024535;28;20037;-76
2023/03/14 09:49:53;;;;;;;6.10;3.10;;;6.00;99.90;;;;;;5022857;28;20095;-75
2023/03/14 09:52:24;;;;;;;18.77;3.75;;;6.00;99.90;;;;;;5023620;28;20827;-75
2023/03/14 09:54:54;;;;;;;5.88;2.72;;;6.00;99.90;;;;;;5023933;28;20045;-76
2023/03/14 09:57:23;;;;;;;10.13;2.63;;;6.00;99.90;;;;;;5023839;28;20436;-76
2023/03/14 09:59:50;;;;;;;18.55;4.00;;;6.10;99.90;;;;;;5006914;28;20813;-76
2023/03/14 10:02:26;;;;;;;9.48;3.75;;;6.10;99.90;;;;;;5023709;28;20421;-76
2023/03/14 10:04:54;;;;;;;10.75;4.22;;;6.10;99.90;;;;;;5022408;28;20129;-76
2023/03/14 10:07:28;;;;;;;3.53;2.42;;;6.10;99.90;;;;;;5023076;28;20148;-76
2023/03/14 10:09:54;;;;;;;11.38;3.25;;;6.20;99.90;;;;;;5006053;28;20073;-75
2023/03/14 10:12:29;;;;;;;6.95;3.00;;;6.20;99.90;;;;;;5005863;28;20100;-75
2023/03/14 10:14:55;;;;;;;9.95;2.85;;;6.10;99.90;;;;;;5005272;28;20060;-76
2023/03/14 10:17:21;;;;;;;4.88;2.42;;;6.10;99.90;;;;;;5023775;28;20041;-76
2023/03/14 10:19:59;;;;;;;5.75;3.20;;;6.10;99.90;;;;;;5004944;28;20049;-78
2023/03/14 10:22:29;;;;;;;4.75;1.92;;;6.10;99.90;;;;;;5024051;28;20042;-76
2023/03/14 10:25:01;;;;;;;5.43;2.45;;;6.10;99.90;;;;;;5005921;28;20065;-75
2023/03/14 10:27:32;;;;;;;31.27;1.98;;;6.10;99.90;;;;;;5006591;28;20037;-75
2023/03/14 10:30:26;;;;;;;2.00;1.50;;;6.10;99.90;;;;;;5005929;28;20310;-75
2023/03/14 10:32:52;;;;;;;4.90;3.03;;;6.10;99.90;;;;;;5005757;28;20041;-76
2023/03/14 10:35:21;;;;;;;17.75;3.47;;;6.10;99.90;;;;;;5004294;28;20052;-75
2023/03/14 10:38:01;;;;;;;4.55;2.60;;;6.10;99.90;;;;;;5005707;28;20050;-76
2023/03/14 10:40:31;;;;;;;4.82;2.40;;;6.20;99.90;;;;;;5019448;28;20100;-76
2023/03/14 10:42:59;;;;;;;3.28;2.35;;;6.20;99.90;;;;;;5019513;28;20478;-75
2023/03/14 10:45:43;;;;;;;12.85;1.83;;;6.20;99.90;;;;;;5006077;28;20038;-76
2023/03/14 10:48:20;;;;;;;4.40;2.03;;;6.20;99.90;;;;;;5005307;28;20137;-75
2023/03/14 10:51:07;;;;;;;8.38;1.77;;;6.20;99.90;;;;;;5003868;28;20049;-74
2023/03/14 10:54:09;;;;;;;1.23;1.00;;;6.10;99.90;;;;;;5017097;28;20429;-77
2023/03/14 10:56:37;;;;;;;1.55;1.40;;;6.00;99.90;;;;;;4982660;28;20049;-76
2023/03/14 10:59:06;;;;;;;3.45;1.20;;;6.00;99.90;;;;;;5023326;28;20042;-77
2023/03/14 11:01:41;;;;;;;3.40;1.10;;;6.00;99.90;;;;;;5005827;28;20293;-76
2023/03/14 11:04:37;;;;;;;3.30;1.25;;;6.10;99.90;;;;;;5005938;28;20370;-76
2023/03/14 11:07:11;;;;;;;4.68;1.30;;;6.00;99.90;;;;;;5022256;28;20549;-76
2023/03/14 11:09:58;;;;;;;13.00;1.83;;;6.10;99.90;;;;;;5005405;28;20486;-77
2023/03/14 11:12:35;;;;;;;2.72;1.00;;;6.00;99.90;;;;;;5023220;28;20099;-76
2023/03/14 11:15:18;;;;;;;2.65;2.28;;;6.00;99.90;;;;;;5023254;28;20049;-77
2023/03/14 11:17:54;;;;;;;1.45;0.85;;;6.00;99.90;;;;;;5004319;28;20069;-76
2023/03/14 11:20:24;;;;;;;7.60;1.08;;;6.00;99.90;;;;;;5003207;28;20656;-76
2023/03/14 11:23:11;;;;;;;14.30;1.27;;;6.00;99.90;;;;;;5004334;28;20056;-76
2023/03/14 11:25:54;;;;;;;2.55;1.52;;;6.00;99.90;;;;;;5018296;28;20052;-76
2023/03/14 11:28:32;;;;;;;2.78;0.80;;;6.00;99.90;;;;;;5002964;28;20068;-75
2023/03/14 11:31:17;;;;;;;5.38;1.20;;;6.10;99.90;;;;;;5023460;28;20061;-75
2023/03/14 11:34:15;;;;;;;1.83;1.45;;;6.20;99.90;;;;;;5023285;28;20050;-75
2023/03/14 11:36:50;;;;;;;20.88;1.38;;;6.30;99.90;;;;;;5005369;28;20045;-75
2023/03/14 11:39:18;;;;;;;1.50;1.38;;;6.40;99.90;;;;;;5007706;28;20041;-76
2023/03/14 11:41:53;;;;;;;3.53;1.33;;;6.40;99.90;;;;;;5005243;28;20111;-76
2023/03/14 11:44:30;;;;;;;4.18;2.63;;;6.40;99.90;;;;;;5016092;28;20120;-74
2023/03/14 11:47:09;;;;;;;3.17;1.35;;;6.40;99.90;;;;;;5005095;28;20055;-74
2023/03/14 11:49:59;;;;;;;12.27;2.47;;;6.40;99.90;;;;;;4998060;28;20076;-75
2023/03/14 11:52:39;;;;;;;5.95;2.88;;;6.40;99.90;;;;;;5006975;28;20056;-75
2023/03/14 11:55:17;;;;;;;7.60;2.17;;;6.40;99.90;;;;;;5003912;28;20044;-75
2023/03/14 11:57:43;;;;;;;6.35;2.90;;;6.50;99.90;;;;;;5022415;28;20072;-75
2023/03/14 12:00:18;;;;;;;2.53;1.40;;;6.50;99.90;;;;;;5022660;28;20409;-75
2023/03/14 12:02:58;;;;;;;4.13;1.60;;;6.50;99.90;;;;;;5005658;28;20073;-76
2023/03/14 12:05:48;;;;;;;3.58;1.92;;;6.50;99.90;;;;;;5018363;28;20436;-75
2023/03/14 12:08:35;;;;;;;5.07;1.02;;;6.50;99.90;;;;;;5008362;28;20073;-76
2023/03/14 12:11:18;;;;;;;1.85;1.00;;;6.50;99.90;;;;;;5025761;28;20064;-75
2023/03/14 12:13:46;;;;;;;;;;;6.50;99.90;;;;;;5008680;28;20405;-74
2023/03/14 12:16:24;;;;;;;6.03;1.25;;;6.50;99.90;;;;;;5028653;28;19928;-75
2023/03/14 12:18:51;;;;;;;3.75;1.60;;;6.50;99.90;;;;;;5020699;28;20060;-75
2023/03/14 12:21:17;;;;;;;3.97;1.52;;;6.50;99.90;;;;;;5002568;28;20110;-74
2023/03/14 12:23:54;;;;;;;8.30;1.85;;;6.50;99.90;;;;;;5024603;28;20037;-74
2023/03/14 12:26:22;;;;;;;2.67;1.35;;;6.50;99.90;;;;;;5034836;28;20056;-74
2023/03/14 12:29:00;;;;;;;2.00;1.05;;;6.50;99.90;;;;;;5025555;28;20087;-75
2023/03/14 12:31:29;;;;;;;4.97;1.33;;;6.40;99.90;;;;;;5024815;28;20056;-74
2023/03/14 12:34:10;;;;;;;10.68;1.80;;;6.40;99.90;;;;;;5007930;28;20046;-74
2023/03/14 12:36:55;;;;;;;8.52;1.80;;;6.30;99.90;;;;;;5008242;28;20045;-74
2023/03/14 12:39:37;;;;;;;2.08;1.65;;;6.30;99.90;;;;;;5008108;28;20054;-76
2023/03/14 12:42:10;;;;;;;4.35;1.52;;;6.30;99.90;;;;;;5007598;28;20089;-75
2023/03/14 12:44:47;;;;;;;3.38;1.48;;;6.30;99.90;;;;;;5005436;28;20041;-74
2023/03/14 12:47:19;;;;;;;6.60;2.40;;;6.30;99.90;;;;;;5025100;28;20124;-74
2023/03/14 12:49:55;;;;;;;3.30;1.13;;;6.40;99.90;;;;;;5021631;28;20402;-73
2023/03/14 12:52:32;;;;;;;7.93;1.40;;;6.50;99.90;;;;;;5025094;28;20405;-75
2023/03/14 12:55:19;;;;;;;11.00;2.35;;;6.50;99.90;;;;;;5024336;28;20037;-74
2023/03/14 12:58:09;;;;;;;1.67;0.88;;;6.40;99.90;;;;;;5007730;28;20045;-74
2023/03/14 13:00:39;;;;;;;3.88;1.33;;;6.40;99.90;;;;;;5013261;28;20111;-74
2023/03/14 13:03:22;;;;;;;4.57;0.80;;;6.40;99.90;;;;;;5024379;28;20041;-75
2023/03/14 13:06:03;;;;;;;3.90;1.23;;;6.40;99.90;;;;;;5023480;28;20047;-74